Detall de PIREP

Printer-friendly versionPDF version

[2017/12/03 07:10:00]
Flight IATA:CT2101
Pilot Number:041
Company ICAO:CAT
Aircraft Type:B738/F
PAX:119
Departing Airport: LEAS
Destination Airport: LEVC
Alternate Airport:LEBL
Online: VATSIM
Route:AMAK1F AMAKA DCT BLV DCT PPN/N0457F360 UM601 POSSY UN862 MLA/N0459F370 UN860 SAURA SAUR3C
Flight Level:FL370
No Slew and time accel
No pause
Crash detect
Detect pilot in Cockpit between each 30 and 45 minutes
07:10 Zero fuel Weight: 122126 Lbs, Fuel Weight: 10407 Lbs
07:10 Take-off
07:10 Take off Weight: 132534 Lbs
07:10 Wind: 335º @ 018 Knots Heading: 178º
07:10 POS N39º 37´ 43´´ W000º 12´ 08´´
07:10 Gear Up: 190 Knots
07:10 TOC
07:10 Fuel Weight: 10409 Lb
07:10 Flaps:1 at 190 Knots
07:10 TOD
07:10 Fuel Weight: 10400 Lb
07:11 Flaps:3 at 187 Knots
07:12 Flaps:4 at 193 Knots
07:16 Gear Down: 151 Knots
07:16 Flaps:5 at 149 Knots
07:17 Flaps:6 at 145 Knots
07:18 Flaps:8 at 140 Knots
07:21 TouchDown:Rate -226 ft/min Speed: 134 Knots
07:21 VATSIM:LEVC 030700Z 28005KT 9999 FEW035 00/M06 Q1024 NOSIG
07:21 Land
07:21 Wind:268º@005 Knots
07:21 Heading: 296º
07:21 Flight Duration: 00:11
07:21 Landing Weight: 132011 Lbs
07:21 POS N39º 29´ 21´´ W000º 28´ 53´´
07:24 Parking brakes on
07:24 Block to Block Duration: 00:14
07:24 Final Fuel: 9761 Lbls
07:24 Spent Fuel: 645 Lbls
07:24 Flight Length: 28 NM
07:24 TOD Land Length: 28 NM

Exportar CSV

Powered by Drupal - Modified by Danger4k